createdAt,value
2017-08-06T00:00:47.587Z,4.73
2017-08-06T00:03:13.975Z,3.67
2017-08-06T00:05:40.352Z,3.90
2017-08-06T00:08:06.760Z,3.80
2017-08-06T00:10:40.220Z,3.30
2017-08-06T00:13:07.351Z,4.00
2017-08-06T00:15:33.871Z,3.77
2017-08-06T00:18:00.254Z,4.10
2017-08-06T00:20:26.635Z,4.50
2017-08-06T00:22:53.043Z,4.57
2017-08-06T00:25:19.401Z,5.50
2017-08-06T00:27:45.843Z,5.10
2017-08-06T00:30:12.235Z,6.30
2017-08-06T00:32:38.671Z,6.83
2017-08-06T00:35:05.038Z,5.53
2017-08-06T00:37:31.453Z,6.13
2017-08-06T00:39:57.843Z,5.50
2017-08-06T00:42:24.215Z,5.20
2017-08-06T00:44:50.803Z,4.97
2017-08-06T00:47:17.911Z,4.80
2017-08-06T00:49:44.282Z,4.27
2017-08-06T00:52:11.455Z,4.80
2017-08-06T00:54:37.843Z,5.30
2017-08-06T00:57:04.260Z,4.87
2017-08-06T00:59:30.635Z,5.57
2017-08-06T01:01:57.034Z,5.60
2017-08-06T01:04:23.415Z,4.30
2017-08-06T01:06:49.834Z,4.57
2017-08-06T01:09:16.200Z,5.17
2017-08-06T01:11:42.573Z,4.37
2017-08-06T01:14:09.947Z,4.60
2017-08-06T01:16:36.347Z,3.90
2017-08-06T01:19:02.727Z,4.40
2017-08-06T01:21:29.134Z,4.73
2017-08-06T01:23:56.251Z,3.70
2017-08-06T01:26:22.639Z,3.50
2017-08-06T01:28:49.015Z,3.93
2017-08-06T01:31:15.407Z,3.73
2017-08-06T01:33:41.783Z,4.10
2017-08-06T01:36:08.211Z,4.40
2017-08-06T01:38:34.611Z,4.20
2017-08-06T01:41:01.051Z,4.07
2017-08-06T01:43:27.443Z,4.47
2017-08-06T01:45:54.580Z,3.93
2017-08-06T01:48:21.755Z,4.30
2017-08-06T01:50:48.136Z,3.70
2017-08-06T01:53:14.554Z,3.63
2017-08-06T01:55:41.003Z,3.97
2017-08-06T01:58:07.443Z,3.80
2017-08-06T02:00:33.877Z,4.23
2017-08-06T02:03:00.291Z,4.27
2017-08-06T02:05:26.670Z,4.13
2017-08-06T02:07:53.786Z,4.27
2017-08-06T02:10:20.202Z,4.30
2017-08-06T02:12:46.588Z,3.73
2017-08-06T02:15:13.736Z,4.77
2017-08-06T02:17:40.152Z,4.40
2017-08-06T02:20:06.552Z,4.47
2017-08-06T02:22:33.139Z,3.80
2017-08-06T02:25:00.241Z,4.40
2017-08-06T02:27:26.623Z,4.80
2017-08-06T02:29:53.028Z,5.53
2017-08-06T02:32:19.423Z,4.37
2017-08-06T02:34:45.867Z,4.50
2017-08-06T02:37:12.287Z,4.37
2017-08-06T02:39:38.658Z,4.53
2017-08-06T02:42:05.059Z,4.43
2017-08-06T02:44:31.463Z,4.27
2017-08-06T02:46:57.883Z,4.90
2017-08-06T02:49:24.261Z,4.07
2017-08-06T02:51:50.632Z,4.83
2017-08-06T02:54:17.776Z,4.70
2017-08-06T02:56:44.924Z,3.97
2017-08-06T02:59:11.317Z,3.97
2017-08-06T03:01:37.731Z,4.77
2017-08-06T03:04:04.111Z,4.00
2017-08-06T03:06:30.488Z,4.33
2017-08-06T03:08:56.946Z,5.27
2017-08-06T03:11:23.362Z,4.70
2017-08-06T03:13:49.751Z,4.80
2017-08-06T03:16:16.867Z,4.27
2017-08-06T03:18:43.279Z,4.23
2017-08-06T03:21:09.663Z,3.73
2017-08-06T03:23:36.771Z,5.00
2017-08-06T03:26:03.187Z,4.50
2017-08-06T03:28:29.595Z,4.83
2017-08-06T03:30:56.007Z,5.00
2017-08-06T03:33:22.512Z,4.83
2017-08-06T03:35:48.874Z,4.90
2017-08-06T03:38:15.999Z,5.10
2017-08-06T03:40:42.423Z,4.67
2017-08-06T03:43:08.806Z,5.40
2017-08-06T03:45:35.909Z,4.37
2017-08-06T03:48:02.299Z,4.37
2017-08-06T03:50:28.668Z,4.50
2017-08-06T03:52:55.053Z,4.43
2017-08-06T03:55:21.442Z,4.20
2017-08-06T03:57:47.870Z,4.77
2017-08-06T04:00:14.246Z,4.47
2017-08-06T04:02:41.359Z,5.07
2017-08-06T04:05:07.771Z,3.60
2017-08-06T04:07:34.153Z,4.20
2017-08-06T04:10:00.580Z,4.37
2017-08-06T04:12:27.723Z,5.00
2017-08-06T04:14:54.827Z,4.07
2017-08-06T04:17:21.339Z,5.10
2017-08-06T04:19:47.735Z,5.07
2017-08-06T04:22:14.111Z,3.97
2017-08-06T04:24:40.511Z,4.03
2017-08-06T04:27:07.631Z,4.50
2017-08-06T04:29:34.057Z,4.43
2017-08-06T04:32:00.770Z,4.30
2017-08-06T04:34:27.148Z,4.73
2017-08-06T04:36:53.532Z,4.60
2017-08-06T04:39:19.936Z,4.70
2017-08-06T04:41:47.059Z,4.17
2017-08-06T04:44:13.470Z,4.67
2017-08-06T04:46:39.843Z,3.90
2017-08-06T04:49:07.007Z,5.10
2017-08-06T04:51:33.375Z,5.07
2017-08-06T04:53:59.751Z,5.37
2017-08-06T04:56:26.891Z,4.87
2017-08-06T04:58:53.274Z,5.43
2017-08-06T05:01:19.672Z,5.90
2017-08-06T05:03:46.811Z,5.67
2017-08-06T05:06:13.190Z,4.50
2017-08-06T05:08:39.600Z,5.70
2017-08-06T05:11:06.003Z,6.57
2017-08-06T05:13:32.391Z,5.30
2017-08-06T05:15:58.774Z,5.87
2017-08-06T05:18:25.917Z,6.03
2017-08-06T05:20:53.058Z,5.90
2017-08-06T05:23:19.459Z,5.10
2017-08-06T05:25:45.903Z,5.17
2017-08-06T05:28:12.287Z,6.60
2017-08-06T05:30:38.683Z,5.30
2017-08-06T05:33:05.051Z,4.60
2017-08-06T05:35:31.552Z,5.63
2017-08-06T05:37:58.010Z,6.10
2017-08-06T05:40:24.481Z,4.90
2017-08-06T05:42:50.919Z,5.50
2017-08-06T05:45:17.335Z,5.70
2017-08-06T05:47:43.819Z,5.37
2017-08-06T05:50:10.295Z,6.17
2017-08-06T05:52:44.475Z,4.87
2017-08-06T05:55:10.859Z,5.57
2017-08-06T05:57:37.292Z,5.47
2017-08-06T06:00:03.850Z,4.70
2017-08-06T06:02:30.248Z,4.73
2017-08-06T06:04:56.639Z,4.93
2017-08-06T06:07:23.063Z,4.90
2017-08-06T06:09:49.455Z,5.40
2017-08-06T06:12:15.867Z,4.90
2017-08-06T06:14:42.255Z,5.30
2017-08-06T06:17:08.676Z,5.00
2017-08-06T06:19:35.060Z,4.77
2017-08-06T06:22:01.469Z,5.03
2017-08-06T06:24:28.845Z,5.13
2017-08-06T06:26:55.283Z,4.93
2017-08-06T06:29:21.666Z,4.60
2017-08-06T06:31:48.248Z,5.37
2017-08-06T06:34:14.626Z,5.77
2017-08-06T06:36:41.027Z,5.50
2017-08-06T06:39:07.424Z,5.10
2017-08-06T06:41:34.541Z,5.10
2017-08-06T06:44:01.716Z,4.50
2017-08-06T06:46:28.847Z,5.20
2017-08-06T06:48:55.240Z,6.53
2017-08-06T06:51:21.626Z,4.67
2017-08-06T06:53:48.024Z,5.50
2017-08-06T06:56:14.407Z,5.97
2017-08-06T06:58:41.552Z,5.00
2017-08-06T07:01:08.698Z,5.27
2017-08-06T07:03:35.848Z,5.00
2017-08-06T07:06:02.990Z,4.57
2017-08-06T07:08:29.397Z,4.83
2017-08-06T07:10:55.795Z,4.60
2017-08-06T07:13:22.171Z,4.83
2017-08-06T07:15:48.574Z,5.97
2017-08-06T07:18:14.984Z,5.40
2017-08-06T07:20:41.394Z,5.50
2017-08-06T07:23:08.515Z,4.77
2017-08-06T07:25:34.911Z,5.17
2017-08-06T07:28:01.323Z,5.30
2017-08-06T07:30:28.455Z,5.60
2017-08-06T07:32:55.616Z,5.47
2017-08-06T07:35:22.723Z,5.67
2017-08-06T07:37:49.100Z,4.83
2017-08-06T07:40:16.252Z,5.07
2017-08-06T07:42:43.404Z,5.60
2017-08-06T07:45:09.807Z,4.73
2017-08-06T07:47:36.208Z,5.60
2017-08-06T07:50:02.598Z,4.47
2017-08-06T07:52:28.985Z,5.87
2017-08-06T07:54:56.151Z,5.23
2017-08-06T07:57:22.515Z,6.60
2017-08-06T07:59:48.920Z,4.93
2017-08-06T08:02:16.067Z,4.83
2017-08-06T08:04:42.471Z,4.90
2017-08-06T08:07:08.887Z,5.83
2017-08-06T08:09:35.272Z,5.17
2017-08-06T08:12:01.651Z,5.50
2017-08-06T08:14:28.049Z,4.77
2017-08-06T08:16:55.179Z,5.07
2017-08-06T08:19:21.581Z,7.10
2017-08-06T08:21:47.960Z,5.33
2017-08-06T08:24:15.266Z,4.40
2017-08-06T08:26:41.675Z,5.50
2017-08-06T08:29:08.056Z,4.80
2017-08-06T08:31:34.475Z,5.03
2017-08-06T08:34:00.931Z,5.70
2017-08-06T08:36:27.651Z,4.00
2017-08-06T08:38:54.142Z,3.90
2017-08-06T08:41:20.696Z,5.80
2017-08-06T08:43:47.236Z,6.33
2017-08-06T08:46:13.628Z,4.90
2017-08-06T08:48:40.050Z,4.53
2017-08-06T08:51:07.168Z,4.90
2017-08-06T08:53:33.549Z,5.37
2017-08-06T08:55:59.954Z,4.23
2017-08-06T08:58:27.094Z,3.50
2017-08-06T09:00:54.231Z,5.00
2017-08-06T09:03:20.679Z,4.03
2017-08-06T09:05:47.112Z,3.53
2017-08-06T09:08:13.528Z,4.27
2017-08-06T09:10:39.912Z,3.97
2017-08-06T09:13:06.354Z,3.97
2017-08-06T09:15:32.833Z,3.87
2017-08-06T09:17:59.977Z,3.63
2017-08-06T09:20:26.403Z,4.60
2017-08-06T09:22:52.791Z,4.07
2017-08-06T09:25:19.207Z,4.40
2017-08-06T09:27:45.788Z,4.30
2017-08-06T09:30:12.198Z,4.63
2017-08-06T09:32:38.578Z,3.90
2017-08-06T09:35:04.995Z,4.73
2017-08-06T09:37:31.408Z,4.93
2017-08-06T09:39:57.800Z,4.63
2017-08-06T09:42:24.220Z,3.53
2017-08-06T09:44:51.508Z,4.40
2017-08-06T09:47:17.891Z,4.80
2017-08-06T09:49:44.271Z,4.23
2017-08-06T09:52:10.704Z,5.17
2017-08-06T09:54:37.131Z,4.43
2017-08-06T09:57:03.535Z,4.00
2017-08-06T09:59:29.982Z,4.53
2017-08-06T10:01:57.155Z,4.70
2017-08-06T10:04:23.532Z,3.97
2017-08-06T10:06:49.956Z,4.80
2017-08-06T10:09:16.552Z,4.23
2017-08-06T10:11:42.996Z,4.63
2017-08-06T10:14:09.524Z,5.23
2017-08-06T10:16:36.763Z,8.70
2017-08-06T10:19:03.207Z,6.00
2017-08-06T10:21:29.639Z,5.80
2017-08-06T10:23:56.282Z,4.03
2017-08-06T10:26:22.660Z,4.90
2017-08-06T10:28:49.056Z,5.37
2017-08-06T10:31:15.445Z,5.53
2017-08-06T10:33:41.935Z,5.53
2017-08-06T10:36:08.339Z,4.77
2017-08-06T10:38:34.720Z,5.60
2017-08-06T10:41:01.142Z,5.10
2017-08-06T10:43:27.550Z,5.23
2017-08-06T10:45:53.947Z,6.20
2017-08-06T10:48:20.399Z,5.60
2017-08-06T10:50:46.795Z,5.87
2017-08-06T10:53:13.217Z,5.23
2017-08-06T10:55:39.639Z,5.93
2017-08-06T10:58:06.019Z,5.73
2017-08-06T11:00:33.179Z,6.10
2017-08-06T11:02:59.595Z,4.90
2017-08-06T11:05:25.982Z,4.30
2017-08-06T11:07:52.383Z,4.63
2017-08-06T11:10:18.775Z,5.20
2017-08-06T11:12:45.447Z,4.73
2017-08-06T11:15:11.832Z,4.80
2017-08-06T11:17:38.228Z,4.23
2017-08-06T11:20:04.663Z,4.07
2017-08-06T11:22:31.029Z,4.73
2017-08-06T11:24:57.495Z,4.60
2017-08-06T11:27:24.630Z,4.30
2017-08-06T11:29:51.019Z,4.03
2017-08-06T11:32:17.421Z,4.53
2017-08-06T11:34:43.988Z,5.47
2017-08-06T11:37:10.415Z,4.40
2017-08-06T11:39:36.819Z,4.00
2017-08-06T11:42:03.447Z,3.80
2017-08-06T11:44:29.906Z,3.97
2017-08-06T11:46:56.308Z,3.60
2017-08-06T11:49:22.754Z,4.30
2017-08-06T11:51:49.175Z,3.40
2017-08-06T11:54:15.574Z,3.33
2017-08-06T11:56:42.016Z,3.23
2017-08-06T11:59:08.404Z,2.70
2017-08-06T12:01:34.824Z,3.00
2017-08-06T12:04:01.235Z,3.53
2017-08-06T12:06:28.393Z,2.87
2017-08-06T12:08:54.778Z,3.17
2017-08-06T12:11:21.175Z,2.90
2017-08-06T12:13:47.608Z,2.90
2017-08-06T12:16:14.091Z,2.33
2017-08-06T12:18:40.575Z,2.60
2017-08-06T12:21:06.993Z,2.30
2017-08-06T12:23:33.640Z,3.27
2017-08-06T12:26:00.054Z,2.70
2017-08-06T12:28:27.191Z,2.30
2017-08-06T12:30:59.557Z,2.33
2017-08-06T12:33:26.903Z,3.00
2017-08-06T12:35:53.284Z,2.50
2017-08-06T12:38:19.806Z,3.10
2017-08-06T12:40:46.933Z,2.50
2017-08-06T12:43:13.302Z,2.43
2017-08-06T12:45:39.707Z,2.73
2017-08-06T12:48:06.103Z,2.50
2017-08-06T12:50:32.623Z,2.40
2017-08-06T12:52:58.995Z,2.97
2017-08-06T12:55:25.444Z,2.33
2017-08-06T12:57:51.872Z,2.30
2017-08-06T13:00:19.011Z,2.23
2017-08-06T13:02:45.425Z,2.30
2017-08-06T13:05:11.821Z,2.67
2017-08-06T13:07:38.346Z,2.57
2017-08-06T13:10:04.731Z,2.57
2017-08-06T13:12:31.100Z,2.23
2017-08-06T13:14:58.263Z,2.50
2017-08-06T13:17:24.668Z,2.30
2017-08-06T13:19:51.292Z,2.47
2017-08-06T13:22:18.550Z,2.90
2017-08-06T13:24:44.956Z,2.33
2017-08-06T13:27:11.367Z,2.47
2017-08-06T13:29:37.740Z,2.13
2017-08-06T13:32:04.150Z,2.90
2017-08-06T13:34:30.543Z,2.70
2017-08-06T13:36:56.951Z,2.00
2017-08-06T13:39:24.073Z,2.33
2017-08-06T13:41:50.479Z,2.60
2017-08-06T13:44:16.880Z,2.40
2017-08-06T13:46:43.255Z,3.00
2017-08-06T13:49:09.632Z,2.07
2017-08-06T13:51:36.776Z,2.77
2017-08-06T13:54:04.037Z,2.40
2017-08-06T13:56:31.179Z,2.67
2017-08-06T13:58:58.308Z,2.00
2017-08-06T14:01:24.838Z,2.40
2017-08-06T14:03:51.222Z,2.50
2017-08-06T14:06:17.597Z,2.50
2017-08-06T14:08:44.011Z,1.77
2017-08-06T14:11:10.389Z,2.00
2017-08-06T14:13:36.788Z,2.27
2017-08-06T14:16:03.155Z,2.43
2017-08-06T14:18:30.327Z,2.10
2017-08-06T14:20:56.703Z,1.93
2017-08-06T14:23:23.087Z,2.03
2017-08-06T14:25:50.230Z,2.67
2017-08-06T14:28:16.611Z,2.20
2017-08-06T14:30:43.069Z,2.17
2017-08-06T14:33:09.460Z,2.30
2017-08-06T14:35:35.872Z,2.20
2017-08-06T14:38:02.299Z,2.40
2017-08-06T14:40:28.820Z,2.17
2017-08-06T14:42:56.343Z,1.77
2017-08-06T14:45:23.627Z,1.50
2017-08-06T14:47:50.824Z,2.03
2017-08-06T14:50:17.359Z,1.40
2017-08-06T14:52:43.760Z,1.53
2017-08-06T14:55:10.871Z,1.90
2017-08-06T14:57:37.321Z,1.40
2017-08-06T15:00:03.723Z,1.40
2017-08-06T15:02:30.111Z,1.53
2017-08-06T15:04:56.629Z,2.00
2017-08-06T15:07:23.749Z,1.27
2017-08-06T15:09:50.107Z,2.10
2017-08-06T15:12:16.508Z,1.50
2017-08-06T15:14:42.904Z,1.37
2017-08-06T15:17:09.315Z,1.50
2017-08-06T15:19:35.755Z,1.07
2017-08-06T15:22:02.151Z,1.30
2017-08-06T15:24:28.566Z,1.20
2017-08-06T15:26:54.956Z,1.33
2017-08-06T15:29:21.327Z,0.97
2017-08-06T15:31:47.776Z,1.33
2017-08-06T15:34:14.152Z,1.30
2017-08-06T15:36:40.545Z,1.10
2017-08-06T15:39:06.943Z,1.30
2017-08-06T15:41:33.356Z,2.23
2017-08-06T15:43:59.779Z,2.70
2017-08-06T15:46:26.159Z,2.77
2017-08-06T15:48:52.559Z,2.63
2017-08-06T15:51:18.965Z,2.50
2017-08-06T15:53:45.349Z,2.70
2017-08-06T15:56:11.886Z,2.03
2017-08-06T15:58:38.309Z,2.47
2017-08-06T16:01:04.706Z,1.67
2017-08-06T16:03:31.120Z,1.10
2017-08-06T16:05:58.251Z,1.20
2017-08-06T16:08:24.775Z,0.93
2017-08-06T16:10:51.158Z,1.10
2017-08-06T16:13:17.590Z,0.93
2017-08-06T16:15:43.988Z,0.60
2017-08-06T16:18:10.379Z,0.97
2017-08-06T16:20:36.775Z,0.70
2017-08-06T16:23:03.903Z,0.90
2017-08-06T16:25:30.320Z,1.00
2017-08-06T16:27:56.729Z,0.80
2017-08-06T16:30:23.112Z,1.00
2017-08-06T16:32:50.263Z,1.13
2017-08-06T16:35:17.389Z,1.10
2017-08-06T16:37:43.780Z,1.23
2017-08-06T16:40:10.195Z,2.30
2017-08-06T16:42:36.603Z,1.47
2017-08-06T16:45:03.767Z,0.90
2017-08-06T16:47:31.035Z,15.80
2017-08-06T16:49:57.431Z,2.00
2017-08-06T16:52:23.811Z,1.30
2017-08-06T16:54:50.215Z,1.90
2017-08-06T16:57:17.376Z,1.00
2017-08-06T16:59:43.768Z,0.90
2017-08-06T17:02:10.135Z,1.00
2017-08-06T17:04:36.544Z,0.70
2017-08-06T17:07:17.823Z,0.60
2017-08-06T17:09:44.247Z,0.80
2017-08-06T17:12:10.636Z,0.70
2017-08-06T17:14:37.027Z,0.97
2017-08-06T17:17:04.171Z,1.00
2017-08-06T17:19:30.540Z,1.03
2017-08-06T17:21:57.056Z,1.50
2017-08-06T17:24:24.187Z,0.80
2017-08-06T17:26:50.579Z,0.80
2017-08-06T17:29:17.015Z,0.80
2017-08-06T17:31:43.415Z,0.80
2017-08-06T17:34:09.809Z,0.63
2017-08-06T17:36:36.231Z,1.20
2017-08-06T17:39:02.687Z,0.60
2017-08-06T17:41:29.064Z,0.90
2017-08-06T17:43:55.568Z,0.60
2017-08-06T17:46:21.951Z,0.60
2017-08-06T17:48:48.333Z,0.80
2017-08-06T17:51:15.507Z,0.70
2017-08-06T17:53:41.901Z,0.87
2017-08-06T17:56:15.391Z,0.80
2017-08-06T17:58:56.715Z,0.80
2017-08-06T18:01:23.115Z,1.00
2017-08-06T18:03:50.236Z,2.70
2017-08-06T18:06:17.411Z,1.20
2017-08-06T18:08:43.820Z,1.30
2017-08-06T18:11:10.218Z,1.03
2017-08-06T18:13:36.607Z,1.10
2017-08-06T18:16:02.983Z,1.20
2017-08-06T18:18:29.388Z,0.90
2017-08-06T18:20:55.759Z,1.70
2017-08-06T18:23:22.148Z,0.60
2017-08-06T18:25:49.290Z,0.80
2017-08-06T18:28:16.416Z,2.07
2017-08-06T18:30:42.851Z,1.30
2017-08-06T18:33:09.263Z,2.20
2017-08-06T18:35:35.703Z,1.60
2017-08-06T18:38:02.120Z,1.67
2017-08-06T18:40:28.513Z,1.97
2017-08-06T18:42:55.670Z,1.23
2017-08-06T18:45:22.043Z,1.70
2017-08-06T18:47:48.454Z,1.37
2017-08-06T18:50:14.823Z,3.00
2017-08-06T18:52:41.202Z,2.17
2017-08-06T18:55:07.620Z,2.00
2017-08-06T18:57:34.024Z,1.40
2017-08-06T19:00:01.379Z,1.10
2017-08-06T19:02:27.757Z,1.00
2017-08-06T19:04:54.159Z,0.87
2017-08-06T19:07:20.547Z,1.37
2017-08-06T19:09:46.943Z,0.97
2017-08-06T19:12:13.351Z,1.00
2017-08-06T19:14:39.728Z,1.30
2017-08-06T19:17:06.111Z,1.30
2017-08-06T19:19:32.512Z,1.50
2017-08-06T19:21:58.904Z,1.63
2017-08-06T19:24:25.308Z,1.17
2017-08-06T19:26:51.698Z,1.20
2017-08-06T19:29:18.104Z,0.90
2017-08-06T19:31:44.526Z,1.30
2017-08-06T19:34:11.675Z,1.10
2017-08-06T19:36:38.947Z,1.00
2017-08-06T19:39:05.332Z,0.90
2017-08-06T19:41:31.753Z,1.30
2017-08-06T19:43:58.128Z,1.00
2017-08-06T19:46:25.266Z,1.17
2017-08-06T19:48:52.440Z,0.70
2017-08-06T19:51:18.832Z,1.00
2017-08-06T19:53:45.219Z,0.90
2017-08-06T19:56:11.611Z,0.83
2017-08-06T19:58:38.745Z,0.80
2017-08-06T20:01:05.255Z,0.83
2017-08-06T20:03:31.627Z,1.20
2017-08-06T20:05:58.763Z,1.00
2017-08-06T20:08:25.251Z,1.27
2017-08-06T20:10:51.647Z,1.00
2017-08-06T20:13:18.769Z,1.10
2017-08-06T20:15:45.186Z,0.60
2017-08-06T20:18:11.606Z,1.17
2017-08-06T20:20:37.986Z,1.33
2017-08-06T20:23:05.253Z,1.60
2017-08-06T20:25:31.646Z,1.00
2017-08-06T20:27:58.052Z,0.77
2017-08-06T20:30:24.453Z,1.07
2017-08-06T20:32:51.609Z,0.90
2017-08-06T20:35:18.019Z,1.47
2017-08-06T20:37:45.144Z,1.27
2017-08-06T20:40:11.678Z,1.23
2017-08-06T20:42:38.048Z,1.50
2017-08-06T20:45:05.152Z,1.07
2017-08-06T20:47:31.556Z,1.30
2017-08-06T20:49:57.967Z,2.20
2017-08-06T20:52:24.354Z,1.53
2017-08-06T20:54:50.763Z,1.63
2017-08-06T20:57:17.148Z,1.27
2017-08-06T20:59:44.267Z,1.13
2017-08-06T21:02:10.688Z,1.20
2017-08-06T21:04:37.081Z,1.13
2017-08-06T21:07:03.512Z,1.17
2017-08-06T21:09:29.879Z,0.60
2017-08-06T21:11:56.295Z,1.07
2017-08-06T21:14:22.664Z,0.97
2017-08-06T21:16:49.183Z,0.97
2017-08-06T21:19:15.564Z,1.30
2017-08-06T21:21:42.695Z,1.00
2017-08-06T21:24:09.134Z,1.10
2017-08-06T21:26:35.515Z,1.00
2017-08-06T21:29:01.903Z,0.77
2017-08-06T21:31:29.044Z,1.67
2017-08-06T21:33:56.430Z,1.60
2017-08-06T21:36:22.843Z,1.00
2017-08-06T21:38:49.979Z,1.07
2017-08-06T21:41:16.396Z,1.20
2017-08-06T21:43:42.813Z,1.40
2017-08-06T21:46:09.219Z,1.33
2017-08-06T21:48:35.605Z,1.10
2017-08-06T21:51:02.044Z,1.10
2017-08-06T21:53:28.423Z,1.30
2017-08-06T21:55:54.824Z,1.03
2017-08-06T21:58:21.936Z,0.90
2017-08-06T22:00:48.459Z,1.20
2017-08-06T22:03:14.843Z,1.03
2017-08-06T22:05:41.215Z,1.23
2017-08-06T22:08:07.651Z,1.20
2017-08-06T22:10:34.034Z,1.33
2017-08-06T22:13:01.148Z,1.17
2017-08-06T22:15:27.576Z,1.20
2017-08-06T22:17:53.963Z,1.10
2017-08-06T22:20:20.359Z,1.13
2017-08-06T22:22:46.780Z,1.30
2017-08-06T22:25:13.209Z,0.80
2017-08-06T22:27:39.595Z,1.23
2017-08-06T22:30:05.975Z,1.43
2017-08-06T22:32:32.376Z,1.20
2017-08-06T22:34:58.764Z,1.20
2017-08-06T22:37:26.059Z,1.30
2017-08-06T22:39:52.458Z,1.20
2017-08-06T22:42:19.574Z,1.30
2017-08-06T22:44:45.984Z,1.13
2017-08-06T22:47:12.403Z,1.03
2017-08-06T22:49:38.914Z,1.47
2017-08-06T22:52:05.440Z,1.37
2017-08-06T22:54:32.552Z,1.23
2017-08-06T22:56:58.948Z,0.83
2017-08-06T22:59:25.323Z,1.00
2017-08-06T23:01:51.735Z,0.80
2017-08-06T23:04:18.119Z,1.37
2017-08-06T23:06:45.247Z,1.53
2017-08-06T23:09:11.668Z,1.00
2017-08-06T23:11:38.059Z,1.60
2017-08-06T23:14:04.430Z,1.50
2017-08-06T23:16:30.835Z,1.23
2017-08-06T23:18:57.235Z,1.40
2017-08-06T23:21:24.344Z,1.10
2017-08-06T23:23:50.754Z,1.17
2017-08-06T23:26:17.139Z,1.93
2017-08-06T23:28:44.295Z,1.33
2017-08-06T23:31:11.415Z,1.30
2017-08-06T23:33:37.800Z,1.37
2017-08-06T23:36:04.227Z,1.10
2017-08-06T23:38:30.628Z,1.30
2017-08-06T23:40:57.755Z,1.20
2017-08-06T23:43:24.151Z,1.30
2017-08-06T23:45:50.661Z,1.20
2017-08-06T23:48:17.775Z,1.20
2017-08-06T23:50:59.099Z,1.43
2017-08-06T23:53:25.475Z,1.20
2017-08-06T23:55:51.859Z,1.30
2017-08-06T23:58:19.020Z,1.43
